Time;durP1;ratioP1;P1;durP2;ratioP2;P2;SDS_P1;SDS_P2;PMS_P1;PMS_P2;Temp;Humidity;BMP_temperature;BMP_pressure;BME280_temperature;BME280_humidity;BME280_pressure;Samples;Min_cycle;Max_cycle;Signal;HPM_P1;HPM_P2
2023/04/05 00:02:09;;;;;;;8.00;4.18;;;0.70;99.90;;;;;;5098741;28;20118;-81
2023/04/05 00:04:37;;;;;;;10.57;4.32;;;0.80;99.90;;;;;;5131808;28;20469;-81
2023/04/05 00:07:07;;;;;;;8.00;4.20;;;0.50;99.90;;;;;;5115752;28;20035;-81
2023/04/05 00:09:33;;;;;;;8.82;3.70;;;0.50;99.90;;;;;;5070980;28;20040;-81
2023/04/05 00:12:00;;;;;;;8.30;3.88;;;0.60;99.90;;;;;;5078668;28;20742;-81
2023/04/05 00:14:27;;;;;;;12.70;3.92;;;0.80;99.90;;;;;;5061561;28;20150;-81
2023/04/05 00:16:53;;;;;;;12.27;5.93;;;0.50;99.90;;;;;;5078401;28;20093;-81
2023/04/05 00:19:22;;;;;;;14.60;7.10;;;0.40;99.90;;;;;;5057311;28;20405;-81
2023/04/05 00:21:48;;;;;;;13.35;7.13;;;1.20;99.90;;;;;;5090889;28;20079;-81
2023/04/05 00:24:15;;;;;;;12.88;6.97;;;1.00;99.90;;;;;;5061874;28;20082;-81
2023/04/05 00:26:43;;;;;;;14.32;6.55;;;0.50;99.90;;;;;;5061626;28;20357;-81
2023/04/05 00:29:09;;;;;;;10.77;5.88;;;0.40;99.90;;;;;;5078403;28;20378;-81
2023/04/05 00:31:36;;;;;;;12.13;6.00;;;0.30;99.90;;;;;;5094595;28;20097;-81
2023/04/05 00:34:07;;;;;;;10.27;5.07;;;0.70;99.90;;;;;;5078213;28;20071;-81
2023/04/05 00:36:34;;;;;;;12.38;5.60;;;0.30;99.90;;;;;;5078154;28;20069;-81
2023/04/05 00:39:01;;;;;;;12.45;5.22;;;0.80;99.90;;;;;;5078096;28;20131;-81
2023/04/05 00:41:28;;;;;;;11.48;5.05;;;0.30;99.90;;;;;;5090449;28;20063;-81
2023/04/05 00:43:55;;;;;;;13.23;5.38;;;0.30;99.90;;;;;;5098336;28;20492;-81
2023/04/05 00:46:22;;;;;;;11.38;5.25;;;0.40;99.90;;;;;;5098079;28;20059;-81
2023/04/05 00:48:49;;;;;;;11.27;4.93;;;1.20;99.90;;;;;;5097452;28;20036;-81
2023/04/05 00:51:19;;;;;;;12.15;5.50;;;0.20;99.90;;;;;;5097793;28;20070;-81
2023/04/05 00:53:46;;;;;;;13.25;5.20;;;0.20;99.90;;;;;;5097928;28;20035;-81
2023/04/05 00:56:14;;;;;;;15.13;5.25;;;0.10;99.90;;;;;;5081604;28;20560;-81
2023/04/05 00:58:41;;;;;;;11.85;5.30;;;0.10;99.90;;;;;;5114134;28;20043;-81
2023/04/05 01:01:22;;;;;;;13.88;5.70;;;0.10;99.90;;;;;;5096632;28;20035;-81
2023/04/05 01:03:58;;;;;;;12.10;5.10;;;0.70;99.90;;;;;;5077349;28;20454;-81
2023/04/05 01:07:03;;;;;;;12.77;6.18;;;0.70;99.90;;;;;;5078560;28;20040;-81
2023/04/05 01:09:44;;;;;;;9.95;5.20;;;0.10;99.90;;;;;;5080071;28;20109;-81
2023/04/05 01:12:16;;;;;;;11.20;4.90;;;0.20;99.90;;;;;;5093721;28;20058;-81
2023/04/05 01:14:49;;;;;;;14.27;5.03;;;0.40;99.90;;;;;;5093636;28;20082;-81
2023/04/05 01:17:26;;;;;;;10.77;4.97;;;0.00;99.90;;;;;;5093903;28;20047;-81
2023/04/05 01:20:01;;;;;;;11.15;4.70;;;0.00;99.90;;;;;;5095144;28;20036;-81
2023/04/05 01:22:55;;;;;;;13.75;5.32;;;-0.10;99.90;;;;;;5106500;28;20443;-81
2023/04/05 01:25:31;;;;;;;11.48;5.35;;;0.00;99.90;;;;;;5089975;28;20135;-81
2023/04/05 01:27:58;;;;;;;;;;;-0.10;99.90;;;;;;5090930;28;20052;-81
2023/04/05 01:30:53;;;;;;;9.48;4.70;;;0.30;99.90;;;;;;5089942;28;20425;-81
2023/04/05 01:33:43;;;;;;;11.88;4.88;;;-0.10;99.90;;;;;;5090394;28;20055;-81
2023/04/05 01:36:31;;;;;;;12.43;5.38;;;-0.10;99.90;;;;;;5083472;28;20041;-81
2023/04/05 01:39:00;;;;;;;12.63;5.82;;;-0.10;99.90;;;;;;5069333;28;20044;-81
2023/04/05 01:41:27;;;;;;;9.10;4.78;;;-0.20;99.90;;;;;;5054135;28;20075;-81
2023/04/05 01:43:53;;;;;;;11.55;5.00;;;-0.10;99.90;;;;;;5059391;28;20072;-81
2023/04/05 01:46:20;;;;;;;9.63;5.07;;;-0.20;99.90;;;;;;5073147;28;20041;-81
2023/04/05 01:48:47;;;;;;;12.65;5.35;;;-0.20;99.90;;;;;;5072743;28;20049;-81
2023/04/05 01:51:14;;;;;;;10.88;4.85;;;-0.20;99.90;;;;;;5089705;28;20507;-81
2023/04/05 01:53:40;;;;;;;12.05;5.05;;;-0.20;99.90;;;;;;5072985;28;20044;-81
2023/04/05 01:56:07;;;;;;;9.70;4.60;;;-0.20;99.90;;;;;;5072940;28;20040;-81
2023/04/05 01:58:34;;;;;;;8.88;4.95;;;-0.10;99.90;;;;;;5089416;28;20514;-81
2023/04/05 02:01:00;;;;;;;9.52;4.65;;;0.20;99.90;;;;;;5089147;28;20128;-81
2023/04/05 02:03:27;;;;;;;13.05;5.93;;;0.70;99.90;;;;;;5072960;28;20489;-82
2023/04/05 02:05:54;;;;;;;15.13;5.50;;;-0.30;99.90;;;;;;5101647;28;20488;-81
2023/04/05 02:08:21;;;;;;;13.68;5.50;;;0.00;99.90;;;;;;5093111;28;20491;-81
2023/04/05 02:10:47;;;;;;;13.05;5.70;;;-0.20;99.90;;;;;;5092670;28;20404;-81
2023/04/05 02:13:14;;;;;;;15.02;5.57;;;-0.20;99.90;;;;;;5092692;28;20040;-81
2023/04/05 02:15:49;;;;;;;12.93;6.20;;;-0.20;99.90;;;;;;5085414;28;20397;-81
2023/04/05 02:18:28;;;;;;;14.13;6.22;;;-0.20;99.90;;;;;;5089316;28;20091;-81
2023/04/05 02:21:01;;;;;;;12.00;6.18;;;0.10;99.90;;;;;;5088986;28;20926;-81
2023/04/05 02:23:29;;;;;;;11.38;5.95;;;-0.20;99.90;;;;;;5089054;28;20048;-81
2023/04/05 02:25:56;;;;;;;14.25;6.63;;;-0.30;99.90;;;;;;5072938;28;20047;-81
2023/04/05 02:28:23;;;;;;;14.43;6.53;;;0.00;99.90;;;;;;5073111;28;20119;-81
2023/04/05 02:30:50;;;;;;;14.13;6.60;;;0.20;99.90;;;;;;5105693;28;20044;-81
2023/04/05 02:33:17;;;;;;;14.32;6.50;;;-0.30;99.90;;;;;;5072785;28;20416;-81
2023/04/05 02:35:44;;;;;;;13.25;6.25;;;-0.30;99.90;;;;;;5072226;28;20090;-81
2023/04/05 02:38:10;;;;;;;15.10;7.15;;;0.00;99.90;;;;;;5089159;28;20098;-81
2023/04/05 02:40:40;;;;;;;15.68;6.65;;;-0.30;99.90;;;;;;5072461;28;20044;-81
2023/04/05 02:43:07;;;;;;;11.48;6.07;;;-0.30;99.90;;;;;;5072342;28;20048;-81
2023/04/05 02:45:33;;;;;;;11.70;6.43;;;-0.30;99.90;;;;;;5072257;28;20572;-81
2023/04/05 02:48:00;;;;;;;13.32;6.40;;;0.30;99.90;;;;;;5083084;28;20043;-81
2023/04/05 02:50:27;;;;;;;15.00;6.88;;;-0.40;99.90;;;;;;5092342;28;20511;-81
2023/04/05 02:52:54;;;;;;;14.13;7.05;;;-0.30;99.90;;;;;;5092111;28;20075;-81
2023/04/05 02:55:21;;;;;;;12.80;6.22;;;-0.40;99.90;;;;;;5092586;28;20070;-80
2023/04/05 02:57:47;;;;;;;15.65;6.75;;;0.50;99.90;;;;;;5092518;28;20031;-81
2023/04/05 03:00:14;;;;;;;12.80;5.93;;;-0.40;99.90;;;;;;5092400;28;20139;-81
2023/04/05 03:02:42;;;;;;;14.30;6.47;;;-0.40;99.90;;;;;;5092499;28;20036;-81
2023/04/05 03:05:09;;;;;;;10.63;6.55;;;-0.40;99.90;;;;;;5092048;28;20032;-81
2023/04/05 03:07:36;;;;;;;16.85;7.15;;;-0.50;99.90;;;;;;5108386;28;20036;-81
2023/04/05 03:10:03;;;;;;;11.45;6.10;;;0.10;99.90;;;;;;5088384;28;20040;-81
2023/04/05 03:12:30;;;;;;;13.05;7.03;;;-0.40;99.90;;;;;;5088863;28;20657;-81
2023/04/05 03:14:57;;;;;;;13.95;6.97;;;0.40;99.90;;;;;;5071766;28;20080;-81
2023/04/05 03:17:23;;;;;;;13.50;6.70;;;-0.50;99.90;;;;;;5088982;28;20488;-81
2023/04/05 03:19:50;;;;;;;14.40;6.57;;;-0.50;99.90;;;;;;5071668;28;20525;-81
2023/04/05 03:22:17;;;;;;;14.05;6.38;;;-0.50;99.90;;;;;;5071736;28;20049;-81
2023/04/05 03:24:43;;;;;;;13.73;6.60;;;0.40;99.90;;;;;;5072298;28;20378;-81
2023/04/05 03:27:12;;;;;;;16.70;7.30;;;-0.50;99.90;;;;;;5071791;28;20123;-81
2023/04/05 03:29:38;;;;;;;14.68;6.85;;;0.00;99.90;;;;;;5072582;28;20047;-81
2023/04/05 03:32:05;;;;;;;13.13;6.40;;;0.70;99.90;;;;;;5088265;28;20040;-81
2023/04/05 03:34:32;;;;;;;12.40;6.88;;;-0.50;99.90;;;;;;5108884;28;20511;-81
2023/04/05 03:36:58;;;;;;;13.60;7.00;;;-0.60;99.90;;;;;;5092093;28;20040;-81
2023/04/05 03:39:26;;;;;;;17.02;7.28;;;-0.20;99.90;;;;;;5108549;28;20051;-81
2023/04/05 03:41:52;;;;;;;12.38;6.85;;;-0.60;99.90;;;;;;5091921;28;20036;-82
2023/04/05 03:44:19;;;;;;;14.23;6.97;;;-0.60;99.90;;;;;;5091938;28;20398;-81
2023/04/05 03:46:46;;;;;;;14.07;7.15;;;-0.60;99.90;;;;;;5091846;28;20103;-81
2023/04/05 03:49:13;;;;;;;14.13;7.07;;;-0.60;99.90;;;;;;5091470;28;20047;-81
2023/04/05 03:51:40;;;;;;;13.65;7.22;;;-0.60;99.90;;;;;;5091976;28;20083;-81
2023/04/05 03:54:06;;;;;;;14.60;7.07;;;-0.70;99.90;;;;;;5100461;28;20094;-81
2023/04/05 03:56:33;;;;;;;13.63;6.82;;;-0.50;99.90;;;;;;5075185;28;20041;-81
2023/04/05 03:59:00;;;;;;;12.75;6.80;;;-0.70;99.90;;;;;;5091579;28;20041;-81
2023/04/05 04:01:26;;;;;;;13.40;6.65;;;-0.70;99.90;;;;;;5075461;28;20036;-81
2023/04/05 04:03:53;;;;;;;12.68;7.07;;;-0.70;99.90;;;;;;5077656;28;20047;-81
2023/04/05 04:06:20;;;;;;;14.38;7.70;;;0.10;99.90;;;;;;5111850;28;20126;-81
2023/04/05 04:08:46;;;;;;;12.35;7.43;;;-0.70;99.90;;;;;;5094989;28;20036;-81
2023/04/05 04:11:13;;;;;;;17.10;7.93;;;-0.80;99.90;;;;;;5094837;28;20485;-81
2023/04/05 04:13:40;;;;;;;13.10;7.22;;;-0.60;99.90;;;;;;5095232;28;20041;-81
2023/04/05 04:16:06;;;;;;;13.13;6.53;;;-0.50;99.90;;;;;;5094942;28;20078;-81
2023/04/05 04:18:33;;;;;;;14.35;7.25;;;-0.60;99.90;;;;;;5095133;28;20044;-81
2023/04/05 04:21:05;;;;;;;16.33;7.57;;;-0.80;99.90;;;;;;5111783;28;20397;-81
2023/04/05 04:23:38;;;;;;;14.45;7.05;;;-0.80;99.90;;;;;;5094592;28;20095;-81
2023/04/05 04:26:05;;;;;;;14.10;6.80;;;-0.30;99.90;;;;;;5080713;28;20184;-81
2023/04/05 04:28:38;;;;;;;13.52;7.13;;;-0.80;99.90;;;;;;5091354;28;20123;-81
2023/04/05 04:31:04;;;;;;;13.43;6.72;;;-0.90;99.90;;;;;;5075511;28;20040;-81
2023/04/05 04:33:33;;;;;;;15.93;6.90;;;-0.90;99.90;;;;;;5074422;28;20063;-81
2023/04/05 04:36:05;;;;;;;15.63;7.40;;;-0.50;99.90;;;;;;5090887;28;20405;-81
2023/04/05 04:38:33;;;;;;;14.73;7.10;;;-0.90;99.90;;;;;;5074742;28;20028;-81
2023/04/05 04:41:06;;;;;;;14.23;7.32;;;-0.90;99.90;;;;;;5090712;28;20052;-81
2023/04/05 04:43:36;;;;;;;12.38;7.10;;;-1.00;99.90;;;;;;5090840;28;20071;-81
2023/04/05 04:46:09;;;;;;;15.18;7.47;;;-1.00;99.90;;;;;;5078305;28;20838;-81
2023/04/05 04:48:36;;;;;;;14.70;7.95;;;0.20;99.90;;;;;;5094744;28;20516;-81
2023/04/05 04:51:03;;;;;;;12.27;6.93;;;-0.60;99.90;;;;;;5094196;28;20516;-81
2023/04/05 04:53:30;;;;;;;14.05;7.47;;;-0.80;99.90;;;;;;5094541;28;20040;-81
2023/04/05 04:55:57;;;;;;;14.60;8.05;;;-1.00;99.90;;;;;;5094051;28;20036;-81
2023/04/05 04:58:23;;;;;;;14.98;7.63;;;-1.00;99.90;;;;;;5110472;28;20430;-81
2023/04/05 05:00:51;;;;;;;18.58;7.55;;;-0.20;99.90;;;;;;5094138;28;20062;-81
2023/04/05 05:03:18;;;;;;;13.77;7.40;;;-1.00;99.90;;;;;;5094488;28;20092;-81
2023/04/05 05:05:48;;;;;;;16.05;7.97;;;-1.00;99.90;;;;;;5094181;28;20036;-80
2023/04/05 05:08:15;;;;;;;14.85;7.88;;;-0.80;99.90;;;;;;5077382;28;20107;-81
2023/04/05 05:10:42;;;;;;;16.73;7.78;;;-1.00;99.90;;;;;;5070413;28;20048;-81
2023/04/05 05:13:10;;;;;;;15.18;8.10;;;-0.70;99.90;;;;;;5053781;28;20041;-81
2023/04/05 05:15:40;;;;;;;13.10;6.97;;;-1.00;99.90;;;;;;5053928;28;20045;-81
2023/04/05 05:18:07;;;;;;;15.38;8.18;;;-1.00;99.90;;;;;;5060863;28;20036;-81
2023/04/05 05:20:34;;;;;;;14.93;7.93;;;-1.00;99.90;;;;;;5073661;28;20405;-80
2023/04/05 05:23:02;;;;;;;16.02;8.00;;;-1.00;99.90;;;;;;5073483;28;20063;-81
2023/04/05 05:25:29;;;;;;;15.68;7.75;;;-0.90;99.90;;;;;;5090256;28;20032;-80
2023/04/05 05:27:56;;;;;;;14.88;7.55;;;-0.20;99.90;;;;;;5073997;28;20079;-81
2023/04/05 05:30:23;;;;;;;17.10;7.72;;;-0.80;99.90;;;;;;5073409;28;20044;-81
2023/04/05 05:32:49;;;;;;;17.17;8.23;;;-0.90;99.90;;;;;;5089741;28;20078;-81
2023/04/05 05:35:16;;;;;;;14.20;8.18;;;-0.60;99.90;;;;;;5073094;28;20051;-81
2023/04/05 05:37:45;;;;;;;15.80;8.55;;;-0.10;99.90;;;;;;5090016;28;20523;-80
2023/04/05 05:40:12;;;;;;;15.48;7.72;;;-0.90;99.90;;;;;;5072714;28;20469;-81
2023/04/05 05:42:39;;;;;;;16.13;8.10;;;-0.80;99.90;;;;;;5089925;28;20033;-81
2023/04/05 05:45:06;;;;;;;18.55;7.85;;;-0.80;99.90;;;;;;5089627;28;20040;-81
2023/04/05 05:47:33;;;;;;;14.68;8.10;;;-0.70;99.90;;;;;;5089637;28;20106;-81
2023/04/05 05:50:00;;;;;;;13.23;7.75;;;-0.70;99.90;;;;;;5072871;28;20117;-80
2023/04/05 05:52:27;;;;;;;14.73;7.85;;;0.20;99.90;;;;;;5064879;28;20127;-81
2023/04/05 05:54:54;;;;;;;15.05;8.38;;;-0.30;99.90;;;;;;5042738;28;20041;-81
2023/04/05 05:57:20;;;;;;;17.67;8.20;;;-0.60;99.90;;;;;;5036339;28;20526;-81
2023/04/05 05:59:47;;;;;;;18.80;8.50;;;-0.60;99.90;;;;;;5058748;28;20047;-81
2023/04/05 06:02:14;;;;;;;15.80;8.32;;;0.20;99.90;;;;;;5092572;28;20043;-81
2023/04/05 06:04:41;;;;;;;17.55;8.25;;;-0.40;99.90;;;;;;5092788;28;20036;-80
2023/04/05 06:07:07;;;;;;;15.38;8.32;;;-0.50;99.90;;;;;;5109608;28;20101;-80
2023/04/05 06:09:34;;;;;;;16.08;8.10;;;-0.40;99.90;;;;;;5092415;28;20068;-80
2023/04/05 06:12:01;;;;;;;21.48;8.57;;;-0.40;99.90;;;;;;5077676;28;20059;-80
2023/04/05 06:14:28;;;;;;;17.67;8.60;;;-0.30;99.90;;;;;;5072483;28;20044;-81
2023/04/05 06:16:55;;;;;;;15.35;8.18;;;0.50;99.90;;;;;;5088474;28;20079;-81
2023/04/05 06:19:22;;;;;;;18.98;8.48;;;-0.30;99.90;;;;;;5072566;28;20408;-80
2023/04/05 06:21:49;;;;;;;18.05;8.25;;;-0.20;99.90;;;;;;5076108;28;20090;-81
2023/04/05 06:24:16;;;;;;;13.80;7.93;;;0.40;99.90;;;;;;5092583;28;20587;-81
2023/04/05 06:26:42;;;;;;;14.30;8.18;;;-0.10;99.90;;;;;;5075929;28;20047;-81
2023/04/05 06:29:09;;;;;;;14.85;8.05;;;0.00;99.90;;;;;;5092611;28;20044;-80
2023/04/05 06:31:36;;;;;;;15.40;7.57;;;1.00;99.90;;;;;;5092074;28;20470;-81
2023/04/05 06:34:03;;;;;;;14.95;7.75;;;0.10;99.90;;;;;;5075837;28;20044;-80
2023/04/05 06:36:30;;;;;;;17.70;8.27;;;0.50;99.90;;;;;;5059436;28;20047;-80
2023/04/05 06:38:58;;;;;;;18.45;7.80;;;0.20;99.90;;;;;;5075905;28;20049;-80
2023/04/05 06:41:26;;;;;;;17.35;7.45;;;0.30;99.90;;;;;;5059543;28;20177;-81
2023/04/05 06:43:53;;;;;;;16.08;7.50;;;1.10;99.90;;;;;;5075654;28;20047;-81
2023/04/05 06:46:19;;;;;;;15.43;7.80;;;0.40;99.90;;;;;;5059196;28;20040;-81
2023/04/05 06:48:47;;;;;;;11.98;6.60;;;0.50;99.90;;;;;;5076039;28;20047;-81
2023/04/05 06:51:14;;;;;;;14.20;6.80;;;1.80;99.90;;;;;;5075414;28;20377;-81
2023/04/05 06:53:41;;;;;;;14.20;7.30;;;1.20;99.90;;;;;;5059100;28;20761;-80
2023/04/05 06:56:07;;;;;;;13.65;6.43;;;1.10;99.90;;;;;;5073734;28;20043;-81
2023/04/05 06:58:34;;;;;;;12.82;6.95;;;0.80;99.90;;;;;;5072440;28;20115;-81
2023/04/05 07:01:01;;;;;;;11.57;6.28;;;0.80;99.90;;;;;;5074734;28;20040;-81
2023/04/05 07:03:28;;;;;;;13.85;6.75;;;0.90;99.90;;;;;;5075126;28;20511;-80
2023/04/05 07:05:58;;;;;;;11.55;6.55;;;1.00;99.90;;;;;;5075052;28;20040;-80
2023/04/05 07:08:26;;;;;;;11.93;5.97;;;1.50;99.90;;;;;;5090984;28;20044;-80
2023/04/05 07:10:55;;;;;;;11.60;6.00;;;1.70;99.90;;;;;;5092202;28;20152;-81
2023/04/05 07:13:24;;;;;;;12.10;6.05;;;1.50;99.90;;;;;;5058539;28;20127;-81
2023/04/05 07:15:51;;;;;;;13.85;6.15;;;1.60;99.90;;;;;;5075412;28;20105;-81
2023/04/05 07:18:18;;;;;;;12.32;6.50;;;1.60;99.90;;;;;;5074312;28;20062;-81
2023/04/05 07:20:48;;;;;;;15.70;6.80;;;1.60;99.90;;;;;;5091332;28;20042;-80
2023/04/05 07:23:15;;;;;;;14.27;6.63;;;2.10;99.90;;;;;;5058030;28;20060;-81
2023/04/05 07:25:42;;;;;;;11.43;6.03;;;2.20;99.90;;;;;;5058188;28;20460;-80
2023/04/05 07:28:09;;;;;;;10.95;5.80;;;2.40;99.90;;;;;;5058711;28;20447;-80
2023/04/05 07:30:36;;;;;;;16.27;5.85;;;2.20;99.90;;;;;;5078342;28;20042;-80
2023/04/05 07:33:03;;;;;;;9.90;5.53;;;2.30;99.90;;;;;;5095572;28;20498;-80
2023/04/05 07:35:30;;;;;;;12.00;6.10;;;2.50;99.90;;;;;;5111476;28;20043;-80
2023/04/05 07:37:56;;;;;;;11.80;5.70;;;1.80;99.90;;;;;;5096398;28;20039;-79
2023/04/05 07:40:23;;;;;;;11.43;5.85;;;2.80;99.90;;;;;;5109348;28;20042;-83
2023/04/05 07:42:50;;;;;;;9.88;5.78;;;2.90;99.90;;;;;;5082313;28;20065;-83
2023/04/05 07:45:17;;;;;;;10.85;6.18;;;3.00;99.90;;;;;;5098194;28;20122;-83
2023/04/05 07:47:43;;;;;;;9.38;5.72;;;3.20;99.90;;;;;;5098347;28;20041;-83
2023/04/05 07:50:13;;;;;;;11.93;5.88;;;3.30;99.90;;;;;;5098748;28;20062;-83
2023/04/05 07:52:41;;;;;;;11.82;5.60;;;3.80;99.90;;;;;;5059647;28;20059;-83
2023/04/05 07:55:09;;;;;;;10.18;5.47;;;4.30;99.90;;;;;;5078216;28;20128;-83
2023/04/05 07:57:36;;;;;;;13.35;5.60;;;3.70;99.90;;;;;;5094564;28;20126;-83
2023/04/05 08:00:09;;;;;;;18.80;5.25;;;3.80;99.90;;;;;;5066676;28;20128;-83
2023/04/05 08:02:35;;;;;;;9.82;5.40;;;3.90;99.90;;;;;;5074532;28;20186;-83
2023/04/05 08:05:02;;;;;;;11.65;5.25;;;4.30;99.90;;;;;;5065598;28;20123;-83
2023/04/05 08:07:29;;;;;;;8.90;5.13;;;4.20;99.90;;;;;;5077807;28;20036;-83
2023/04/05 08:09:58;;;;;;;11.13;5.15;;;4.30;99.90;;;;;;5077929;28;20197;-83
2023/04/05 08:12:26;;;;;;;9.90;4.60;;;4.40;99.90;;;;;;5080398;28;20055;-82
2023/04/05 08:14:53;;;;;;;10.43;4.45;;;4.60;99.90;;;;;;5094179;28;20126;-83
2023/04/05 08:17:19;;;;;;;8.45;4.45;;;4.70;99.90;;;;;;5094934;28;20182;-83
2023/04/05 08:19:48;;;;;;;10.23;5.05;;;4.80;99.90;;;;;;5077474;28;20126;-83
2023/04/05 08:22:16;;;;;;;9.02;3.95;;;5.00;99.90;;;;;;5061128;28;20056;-83
2023/04/05 08:24:43;;;;;;;9.07;4.38;;;5.10;99.90;;;;;;5093957;28;20036;-83
2023/04/05 08:27:10;;;;;;;8.55;4.13;;;5.30;99.90;;;;;;5094431;28;20143;-83
2023/04/05 08:29:37;;;;;;;6.18;3.72;;;6.00;99.90;;;;;;5061204;28;20076;-83
2023/04/05 08:32:04;;;;;;;6.63;3.65;;;5.60;99.90;;;;;;5078011;28;20040;-83
2023/04/05 08:34:30;;;;;;;8.55;3.85;;;5.70;99.90;;;;;;5061108;28;20701;-83
2023/04/05 08:36:58;;;;;;;9.82;3.90;;;5.80;99.90;;;;;;5077675;28;20040;-84
2023/04/05 08:39:25;;;;;;;9.70;4.20;;;5.90;99.90;;;;;;5110725;28;20133;-82
2023/04/05 08:42:29;;;;;;;7.97;3.80;;;6.00;99.90;;;;;;5077142;28;20134;-83
2023/04/05 08:44:58;;;;;;;7.72;3.42;;;6.10;99.90;;;;;;5094026;28;20032;-84
2023/04/05 08:47:26;;;;;;;5.93;2.90;;;6.30;99.90;;;;;;5077796;28;20043;-84
2023/04/05 08:49:53;;;;;;;7.18;3.35;;;6.50;99.90;;;;;;5094312;28;20040;-84
2023/04/05 08:52:19;;;;;;;7.05;3.22;;;6.60;99.90;;;;;;5061304;28;20101;-82
2023/04/05 08:54:46;;;;;;;7.55;2.90;;;6.70;99.90;;;;;;5065999;28;20037;-83
2023/04/05 08:57:14;;;;;;;6.15;3.25;;;6.90;99.90;;;;;;5097630;28;20039;-83
2023/04/05 08:59:43;;;;;;;5.40;3.33;;;7.10;99.90;;;;;;5097321;28;20036;-83
2023/04/05 09:02:18;;;;;;;9.88;3.10;;;7.20;99.90;;;;;;5098429;28;20032;-84
2023/04/05 09:04:47;;;;;;;5.80;2.75;;;7.30;99.90;;;;;;5113817;28;20510;-84
2023/04/05 09:07:14;;;;;;;4.50;2.60;;;7.40;99.90;;;;;;5131273;28;20118;-83
2023/04/05 09:09:51;;;;;;;8.95;3.20;;;7.50;99.90;;;;;;5113445;28;20043;-83
2023/04/05 09:12:21;;;;;;;5.50;2.30;;;7.60;99.90;;;;;;5114322;28;20031;-83
2023/04/05 09:14:49;;;;;;;5.57;2.38;;;7.70;99.90;;;;;;5130785;28;20046;-83
2023/04/05 09:17:20;;;;;;;7.43;2.90;;;7.70;99.90;;;;;;5072397;28;20401;-83
2023/04/05 09:19:49;;;;;;;6.10;2.75;;;7.80;99.90;;;;;;5040606;28;20573;-83
2023/04/05 09:22:17;;;;;;;5.32;2.58;;;7.90;99.90;;;;;;5076091;28;20511;-84
2023/04/05 09:24:45;;;;;;;7.50;2.08;;;8.10;99.90;;;;;;5092715;28;20115;-83
2023/04/05 09:27:17;;;;;;;7.55;2.60;;;8.10;99.90;;;;;;5099948;28;21452;-84
2023/04/05 09:29:46;;;;;;;7.50;1.92;;;8.20;99.90;;;;;;5093193;28;20048;-83
2023/04/05 09:32:14;;;;;;;9.40;2.25;;;8.30;99.90;;;;;;5099565;28;20518;-83
2023/04/05 09:34:42;;;;;;;5.18;2.35;;;8.40;99.90;;;;;;5093308;28;20115;-83
2023/04/05 09:37:35;;;;;;;5.85;2.17;;;8.50;99.90;;;;;;5093300;28;20040;-83
2023/04/05 09:40:03;;;;;;;4.40;1.92;;;8.60;99.90;;;;;;5086031;28;20127;-84
2023/04/05 09:42:43;;;;;;;4.60;2.08;;;8.70;99.90;;;;;;5076859;28;20042;-83
2023/04/05 09:45:11;;;;;;;3.92;1.85;;;8.80;99.90;;;;;;5092855;28;20032;-84
2023/04/05 09:47:38;;;;;;;4.45;2.00;;;8.90;99.90;;;;;;5076297;28;20119;-83
2023/04/05 09:50:23;;;;;;;4.57;1.83;;;9.00;99.90;;;;;;5076547;28;20044;-84
2023/04/05 09:52:51;;;;;;;3.78;1.75;;;9.00;99.30;;;;;;5092509;28;20036;-83
2023/04/05 09:55:27;;;;;;;3.70;1.80;;;9.10;99.90;;;;;;5076052;28;20449;-84
2023/04/05 09:57:54;;;;;;;5.03;1.85;;;9.20;99.90;;;;;;5059433;28;20508;-84
2023/04/05 10:00:22;;;;;;;5.13;2.00;;;9.10;94.60;;;;;;5092282;28;20052;-83
2023/04/05 10:02:53;;;;;;;4.22;1.65;;;9.20;99.20;;;;;;5109418;28;20059;-84
2023/04/05 10:05:23;;;;;;;4.78;1.90;;;9.40;99.90;;;;;;5101014;28;20122;-85
2023/04/05 10:07:51;;;;;;;6.57;1.95;;;9.40;99.20;;;;;;5109135;28;20051;-84
2023/04/05 10:10:19;;;;;;;4.18;1.88;;;9.60;99.90;;;;;;5074732;28;20042;-85
2023/04/05 10:12:48;;;;;;;4.72;2.20;;;9.60;99.40;;;;;;5075572;28;20039;-85
2023/04/05 10:15:15;;;;;;;5.65;2.33;;;9.50;97.40;;;;;;5092085;28;20051;-84
2023/04/05 10:17:59;;;;;;;4.97;2.15;;;9.50;98.90;;;;;;5075440;28;20040;-84
2023/04/05 10:20:27;;;;;;;7.10;2.72;;;9.50;98.30;;;;;;5092469;28;20510;-84
2023/04/05 10:23:07;;;;;;;6.13;2.50;;;9.50;98.80;;;;;;5058671;28;20082;-83
2023/04/05 10:25:52;;;;;;;6.28;2.60;;;9.50;97.30;;;;;;5163830;27;2025206;-83
2023/04/05 10:28:55;;;;;;;6.22;2.50;;;9.50;96.90;;;;;;5151381;27;20053;-83
2023/04/05 10:31:37;;;;;;;7.50;3.22;;;9.60;95.70;;;;;;5098502;28;20054;-83
2023/04/05 10:34:06;;;;;;;8.10;2.83;;;9.70;95.50;;;;;;5147975;28;20043;-83
2023/04/05 10:36:48;;;;;;;6.15;2.45;;;9.60;96.50;;;;;;5133415;27;20035;-83
2023/04/05 10:39:36;;;;;;;7.55;2.65;;;9.50;95.60;;;;;;5150379;27;20060;-83
2023/04/05 10:42:12;;;;;;;4.32;2.38;;;9.60;97.00;;;;;;5150468;27;20035;-83
2023/04/05 10:44:42;;;;;;;5.47;2.85;;;9.80;97.90;;;;;;5153785;28;20039;-84
2023/04/05 10:47:16;;;;;;;6.00;2.85;;;9.90;97.70;;;;;;5130318;28;20039;-83
2023/04/05 10:49:47;;;;;;;5.28;2.70;;;10.00;96.50;;;;;;5146803;28;20051;-83
2023/04/05 10:52:16;;;;;;;5.18;2.65;;;10.10;96.70;;;;;;5126774;28;20404;-83
2023/04/05 10:54:44;;;;;;;6.50;3.30;;;10.20;96.90;;;;;;5109172;28;20054;-83
2023/04/05 10:57:12;;;;;;;6.38;2.90;;;10.30;96.80;;;;;;5126492;28;20047;-83
2023/04/05 10:59:44;;;;;;;7.30;3.08;;;10.40;97.20;;;;;;5129254;28;20043;-83
2023/04/05 11:02:13;;;;;;;5.10;3.05;;;10.50;96.30;;;;;;5129755;28;20577;-83
2023/04/05 11:04:40;;;;;;;5.20;2.90;;;10.50;96.60;;;;;;5146806;28;20109;-84
2023/04/05 11:07:16;;;;;;;5.13;2.92;;;10.50;96.40;;;;;;5129921;28;20033;-84
2023/04/05 11:10:00;;;;;;;5.95;3.25;;;10.40;92.80;;;;;;5129196;28;20035;-83
2023/04/05 11:12:45;;;;;;;11.15;3.25;;;10.20;92.00;;;;;;5129625;28;20042;-83
2023/04/05 11:15:41;;;;;;;6.03;3.08;;;10.30;93.80;;;;;;5146318;28;20043;-84
2023/04/05 11:18:19;;;;;;;6.43;3.17;;;10.30;92.90;;;;;;5125692;28;20051;-83
2023/04/05 11:20:50;;;;;;;5.78;3.00;;;10.40;95.60;;;;;;5129530;28;20031;-83
2023/04/05 11:23:20;;;;;;;8.90;3.60;;;10.50;95.10;;;;;;5135931;27;20669;-84
2023/04/05 11:25:50;;;;;;;8.52;3.30;;;10.50;95.10;;;;;;5158033;27;20518;-83
2023/04/05 11:28:28;;;;;;;6.45;3.13;;;10.50;94.80;;;;;;5167362;27;20046;-83
2023/04/05 11:30:57;;;;;;;5.25;3.20;;;10.50;92.80;;;;;;5146940;27;20032;-83
2023/04/05 11:33:48;;;;;;;5.82;3.42;;;10.70;94.90;;;;;;5134465;28;20051;-84
2023/04/05 11:36:34;;;;;;;7.22;3.20;;;10.80;94.60;;;;;;5116823;28;20106;-84
2023/04/05 11:39:22;;;;;;;5.72;2.75;;;10.70;91.50;;;;;;5111740;28;20054;-83
2023/04/05 11:42:18;;;;;;;6.63;2.90;;;10.80;92.40;;;;;;5111452;27;20039;-84
2023/04/05 11:44:47;;;;;;;5.88;3.20;;;10.90;93.10;;;;;;5090777;28;20040;-84
2023/04/05 11:47:20;;;;;;;7.50;3.00;;;10.90;91.60;;;;;;5121192;27;20058;-84
2023/04/05 11:49:50;;;;;;;6.00;3.10;;;10.80;92.30;;;;;;5115127;28;20036;-83
2023/04/05 11:52:20;;;;;;;6.65;3.08;;;10.70;92.30;;;;;;5123772;27;20080;-85
2023/04/05 11:54:47;;;;;;;4.88;2.85;;;10.80;94.30;;;;;;5109572;27;20069;-85
2023/04/05 11:57:21;;;;;;;5.70;3.10;;;10.90;93.00;;;;;;5126624;28;20106;-84
2023/04/05 11:59:50;;;;;;;5.88;3.15;;;10.90;93.60;;;;;;5114916;28;20043;-83
2023/04/05 12:02:17;;;;;;;6.18;2.75;;;11.00;93.50;;;;;;5120486;28;20039;-84
2023/04/05 12:04:52;;;;;;;6.32;2.90;;;10.90;91.30;;;;;;5111234;27;20504;-84
2023/04/05 12:07:19;;;;;;;6.38;2.88;;;10.90;93.00;;;;;;5120509;27;20078;-84
2023/04/05 12:10:02;;;;;;;6.22;2.97;;;10.60;92.40;;;;;;5132984;27;20031;-84
2023/04/05 12:12:34;;;;;;;7.70;3.30;;;10.40;91.10;;;;;;5124506;27;20043;-84
2023/04/05 12:15:02;;;;;;;6.45;3.65;;;10.30;91.30;;;;;;5126830;27;20072;-84
2023/04/05 12:17:40;;;;;;;7.35;2.72;;;10.20;92.90;;;;;;5116345;28;20078;-84
2023/04/05 12:20:07;;;;;;;7.60;3.03;;;10.40;92.60;;;;;;5133486;27;20057;-84
2023/04/05 12:22:36;;;;;;;7.93;3.55;;;10.40;92.80;;;;;;5123433;28;20108;-84
2023/04/05 12:25:04;;;;;;;6.85;3.25;;;10.40;92.40;;;;;;5105528;27;20044;-84
2023/04/05 12:27:31;;;;;;;5.43;3.03;;;10.40;92.30;;;;;;5120686;28;20123;-84
2023/04/05 12:30:26;;;;;;;7.45;2.90;;;10.40;92.20;;;;;;5086638;28;20114;-83
2023/04/05 12:32:54;;;;;;;6.10;3.20;;;10.50;90.80;;;;;;5130982;27;20521;-83
2023/04/05 12:35:31;;;;;;;6.60;3.30;;;10.50;92.10;;;;;;5115258;27;20035;-84
2023/04/05 12:37:59;;;;;;;5.40;2.88;;;10.50;91.40;;;;;;5114474;28;20043;-83
2023/04/05 12:40:29;;;;;;;7.00;3.05;;;10.50;92.10;;;;;;5114536;28;20406;-84
2023/04/05 12:43:02;;;;;;;6.82;2.80;;;10.50;92.10;;;;;;5098152;28;20066;-83
2023/04/05 12:45:30;;;;;;;6.13;3.17;;;10.50;90.80;;;;;;5097528;28;20067;-84
2023/04/05 12:47:58;;;;;;;9.05;3.10;;;10.60;92.10;;;;;;5130154;28;20499;-83
2023/04/05 12:50:30;;;;;;;6.93;3.22;;;10.60;92.00;;;;;;5136397;27;20031;-84
2023/04/05 12:52:59;;;;;;;6.53;2.92;;;10.60;91.80;;;;;;5125634;27;20046;-84
2023/04/05 12:55:29;;;;;;;5.32;2.95;;;10.60;91.40;;;;;;5151589;27;20058;-84
2023/04/05 12:58:00;;;;;;;7.60;3.30;;;10.70;91.60;;;;;;5125476;27;20043;-83
2023/04/05 13:00:28;;;;;;;6.15;3.20;;;10.70;91.70;;;;;;5134006;27;20043;-84